createdAt,value
2024-01-11T00:00:40.418Z,-4.89
2024-01-11T00:01:40.420Z,-4.88
2024-01-11T00:02:40.448Z,-4.61
2024-01-11T00:03:40.347Z,-4.59
2024-01-11T00:04:40.361Z,-4.84
2024-01-11T00:05:40.395Z,-4.85
2024-01-11T00:06:40.402Z,-4.99
2024-01-11T00:07:40.320Z,-5.13
2024-01-11T00:08:40.340Z,-5.46
2024-01-11T00:09:40.320Z,-5.61
2024-01-11T00:10:40.298Z,-5.51
2024-01-11T00:11:40.447Z,-4.99
2024-01-11T00:12:40.286Z,-4.78
2024-01-11T00:13:40.278Z,-5.05
2024-01-11T00:14:40.323Z,-4.98
2024-01-11T00:15:40.351Z,-5.06
2024-01-11T00:16:40.283Z,-5.02
2024-01-11T00:17:40.346Z,-5.21
2024-01-11T00:18:40.374Z,-5.31
2024-01-11T00:19:40.230Z,-4.88
2024-01-11T00:20:40.340Z,-4.85
2024-01-11T00:21:41.977Z,-4.81
2024-01-11T00:22:40.213Z,-5.05
2024-01-11T00:23:40.255Z,-5.36
2024-01-11T00:24:40.203Z,-5.57
2024-01-11T00:25:40.215Z,-5.86
2024-01-11T00:26:40.259Z,-5.90
2024-01-11T00:27:40.169Z,-6.05
2024-01-11T00:28:40.167Z,-6.05
2024-01-11T00:29:40.222Z,-6.23
2024-01-11T00:30:40.199Z,-6.31
2024-01-11T00:31:40.147Z,-6.29
2024-01-11T00:32:40.197Z,-6.32
2024-01-11T00:33:40.228Z,-6.29
2024-01-11T00:34:40.166Z,-6.54
2024-01-11T00:35:40.259Z,-6.60
2024-01-11T00:36:40.115Z,-6.63
2024-01-11T00:37:40.125Z,-6.38
2024-01-11T00:38:40.134Z,-6.17
2024-01-11T00:39:40.109Z,-5.96
2024-01-11T00:40:41.099Z,-5.92
2024-01-11T00:41:40.131Z,-5.95
2024-01-11T00:42:40.062Z,-5.90
2024-01-11T00:43:40.064Z,-5.89
2024-01-11T00:44:40.157Z,-5.82
2024-01-11T00:45:40.039Z,-5.66
2024-01-11T00:46:40.042Z,-5.57
2024-01-11T00:47:40.171Z,-5.68
2024-01-11T00:48:40.132Z,-5.47
2024-01-11T00:49:40.128Z,-5.33
2024-01-11T00:50:40.076Z,-4.87
2024-01-11T00:51:40.007Z,-4.77
2024-01-11T00:52:39.985Z,-4.21
2024-01-11T00:53:40.060Z,-3.85
2024-01-11T00:54:40.006Z,-3.83
2024-01-11T00:55:39.969Z,-3.78
2024-01-11T00:56:40.071Z,-3.86
2024-01-11T00:57:39.966Z,-4.24
2024-01-11T00:58:39.946Z,-4.42
2024-01-11T00:59:39.993Z,-4.78
2024-01-11T01:00:40.010Z,-4.99
2024-01-11T01:01:39.929Z,-5.25
2024-01-11T01:02:40.032Z,-5.51
2024-01-11T01:03:39.962Z,-5.42
2024-01-11T01:04:39.941Z,-5.28
2024-01-11T01:05:40.043Z,-5.17
2024-01-11T01:06:39.914Z,-4.91
2024-01-11T01:07:39.880Z,-4.64
2024-01-11T01:08:39.926Z,-4.73
2024-01-11T01:09:39.871Z,-5.09
2024-01-11T01:10:39.907Z,-5.43
2024-01-11T01:11:39.887Z,-5.29
2024-01-11T01:12:39.854Z,-5.25
2024-01-11T01:13:39.877Z,-5.40
2024-01-11T01:14:39.909Z,-4.95
2024-01-11T01:15:39.835Z,-4.91
2024-01-11T01:16:39.830Z,-4.60
2024-01-11T01:17:39.940Z,-4.53
2024-01-11T01:18:39.973Z,-4.70
2024-01-11T01:19:39.836Z,-4.70
2024-01-11T01:20:39.914Z,-4.35
2024-01-11T01:21:39.789Z,-4.34
2024-01-11T01:22:39.788Z,-4.20
2024-01-11T01:23:39.857Z,-4.34
2024-01-11T01:24:39.804Z,-4.46
2024-01-11T01:25:39.788Z,-4.59
2024-01-11T01:26:39.838Z,-4.41
2024-01-11T01:27:39.782Z,-4.63
2024-01-11T01:28:39.761Z,-4.87
2024-01-11T01:29:39.792Z,-4.88
2024-01-11T01:30:39.774Z,-4.67
2024-01-11T01:31:39.721Z,-4.31
2024-01-11T01:32:39.816Z,-4.25
2024-01-11T01:33:39.885Z,-4.31
2024-01-11T01:34:39.760Z,-3.98
2024-01-11T01:35:39.778Z,-4.06
2024-01-11T01:36:39.697Z,-4.17
2024-01-11T01:37:39.706Z,-4.48
2024-01-11T01:38:39.703Z,-4.73
2024-01-11T01:39:39.669Z,-4.99
2024-01-11T01:40:39.656Z,-5.05
2024-01-11T01:41:39.737Z,-4.92
2024-01-11T01:42:39.672Z,-4.99
2024-01-11T01:43:39.629Z,-5.13
2024-01-11T01:44:39.675Z,-5.36
2024-01-11T01:45:39.638Z,-5.49
2024-01-11T01:46:39.686Z,-5.45
2024-01-11T01:47:39.692Z,-5.42
2024-01-11T01:48:39.799Z,-5.51
2024-01-11T01:49:39.634Z,-5.53
2024-01-11T01:50:39.617Z,-5.78
2024-01-11T01:51:39.615Z,-6.05
2024-01-11T01:52:39.566Z,-6.14
2024-01-11T01:53:39.680Z,-6.15
2024-01-11T01:54:39.557Z,-5.86
2024-01-11T01:55:39.573Z,-5.63
2024-01-11T01:56:39.643Z,-5.90
2024-01-11T01:57:39.525Z,-6.03
2024-01-11T01:58:39.520Z,-6.20
2024-01-11T01:59:39.667Z,-6.24
2024-01-11T02:00:39.633Z,-6.13
2024-01-11T02:01:39.529Z,-6.08
2024-01-11T02:02:39.752Z,-5.93
2024-01-11T02:03:39.778Z,-5.82
2024-01-11T02:04:39.477Z,-5.90
2024-01-11T02:05:39.561Z,-5.93
2024-01-11T02:06:39.578Z,-6.03
2024-01-11T02:07:39.455Z,-6.07
2024-01-11T02:08:39.503Z,-6.34
2024-01-11T02:09:39.465Z,-6.10
2024-01-11T02:10:39.455Z,-5.89
2024-01-11T02:11:39.465Z,-5.68
2024-01-11T02:12:39.422Z,-5.33
2024-01-11T02:13:39.414Z,-4.98
2024-01-11T02:14:39.540Z,-4.92
2024-01-11T02:15:39.407Z,-5.05
2024-01-11T02:16:39.390Z,-5.13
2024-01-11T02:17:39.554Z,-5.31
2024-01-11T02:18:39.462Z,-5.63
2024-01-11T02:19:39.419Z,-5.79
2024-01-11T02:20:39.522Z,-5.90
2024-01-11T02:21:39.374Z,-5.84
2024-01-11T02:22:39.368Z,-5.93
2024-01-11T02:23:40.994Z,-5.68
2024-01-11T02:24:39.370Z,-5.46
2024-01-11T02:25:39.348Z,-5.36
2024-01-11T02:26:39.355Z,-5.39
2024-01-11T02:27:39.331Z,-5.67
2024-01-11T02:28:39.334Z,-5.82
2024-01-11T02:29:39.402Z,-6.17
2024-01-11T02:30:39.342Z,-6.23
2024-01-11T02:31:39.363Z,-6.24
2024-01-11T02:32:39.334Z,-6.07
2024-01-11T02:33:39.396Z,-6.02
2024-01-11T02:34:39.467Z,-6.08
2024-01-11T02:35:39.934Z,-5.85
2024-01-11T02:36:39.254Z,-5.64
2024-01-11T02:37:39.252Z,-5.47
2024-01-11T02:38:39.300Z,-5.54
2024-01-11T02:39:39.232Z,-5.76
2024-01-11T02:40:39.228Z,-5.68
2024-01-11T02:41:39.330Z,-5.56
2024-01-11T02:42:39.253Z,-5.18
2024-01-11T02:43:39.228Z,-4.81
2024-01-11T02:44:39.268Z,-4.60
2024-01-11T02:45:39.188Z,-4.69
2024-01-11T02:46:39.181Z,-4.89
2024-01-11T02:47:39.367Z,-5.14
2024-01-11T02:48:39.270Z,-5.25
2024-01-11T02:49:39.161Z,-5.06
2024-01-11T02:50:39.171Z,-4.91
2024-01-11T02:51:39.142Z,-5.06
2024-01-11T02:52:39.162Z,-4.98
2024-01-11T02:53:39.279Z,-4.63
2024-01-11T02:54:39.121Z,-4.13
2024-01-11T02:55:39.147Z,-4.07
2024-01-11T02:56:39.174Z,-3.88
2024-01-11T02:57:39.123Z,-3.89
2024-01-11T02:58:39.095Z,-3.58
2024-01-11T02:59:39.130Z,-3.55
2024-01-11T03:00:39.117Z,-3.69
2024-01-11T03:01:39.092Z,-3.80
2024-01-11T03:02:39.763Z,-3.80
2024-01-11T03:03:39.098Z,-3.93
2024-01-11T03:04:39.049Z,-4.32
2024-01-11T03:05:39.093Z,-4.34
2024-01-11T03:06:39.118Z,-4.16
2024-01-11T03:07:39.035Z,-3.89
2024-01-11T03:08:39.094Z,-3.74
2024-01-11T03:09:39.018Z,-3.92
2024-01-11T03:10:39.040Z,-4.41
2024-01-11T03:11:39.111Z,-4.66
2024-01-11T03:12:38.986Z,-4.78
2024-01-11T03:13:38.994Z,-4.60
2024-01-11T03:14:39.038Z,-4.45
2024-01-11T03:15:38.999Z,-4.49
2024-01-11T03:16:38.962Z,-4.67
2024-01-11T03:17:39.092Z,-4.84
2024-01-11T03:18:39.120Z,-4.99
2024-01-11T03:19:38.937Z,-4.87
2024-01-11T03:20:39.024Z,-4.84
2024-01-11T03:21:38.927Z,-4.71
2024-01-11T03:22:38.916Z,-4.75
2024-01-11T03:23:38.941Z,-4.66
2024-01-11T03:24:38.932Z,-4.67
2024-01-11T03:25:38.935Z,-4.59
2024-01-11T03:26:38.990Z,-4.39
2024-01-11T03:27:38.881Z,-4.42
2024-01-11T03:28:38.875Z,-4.49
2024-01-11T03:29:38.935Z,-4.53
2024-01-11T03:30:38.909Z,-4.42
2024-01-11T03:31:38.858Z,-4.75
2024-01-11T03:32:39.077Z,-4.89
2024-01-11T03:33:39.005Z,-5.35
2024-01-11T03:34:38.894Z,-5.57
2024-01-11T03:35:38.935Z,-5.58
2024-01-11T03:36:38.830Z,-5.49
2024-01-11T03:37:38.812Z,-5.54
2024-01-11T03:38:38.852Z,-5.33
2024-01-11T03:39:38.814Z,-5.27
2024-01-11T03:40:38.813Z,-5.45
2024-01-11T03:41:38.893Z,-5.42
2024-01-11T03:42:38.772Z,-5.35
2024-01-11T03:43:38.801Z,-5.54
2024-01-11T03:44:38.975Z,-5.49
2024-01-11T03:45:38.783Z,-5.72
2024-01-11T03:46:38.744Z,-5.57
2024-01-11T03:47:38.937Z,-5.81
2024-01-11T03:48:39.038Z,-5.79
2024-01-11T03:49:38.723Z,-6.15
2024-01-11T03:50:38.842Z,-6.34
2024-01-11T03:51:38.712Z,-6.49
2024-01-11T03:52:39.701Z,-6.36
2024-01-11T03:53:39.269Z,-6.38
2024-01-11T03:54:38.763Z,-6.11
2024-01-11T03:55:38.764Z,-5.95
2024-01-11T03:56:38.731Z,-5.89
2024-01-11T03:57:38.725Z,-5.75
2024-01-11T03:58:38.689Z,-6.14
2024-01-11T03:59:38.735Z,-6.35
2024-01-11T04:00:38.686Z,-6.49
2024-01-11T04:01:38.636Z,-6.90
2024-01-11T04:02:38.709Z,-6.96
2024-01-11T04:03:38.658Z,-7.13
2024-01-11T04:04:38.616Z,-7.32
2024-01-11T04:05:38.664Z,-7.49
2024-01-11T04:06:38.687Z,-7.53
2024-01-11T04:07:38.622Z,-7.67
2024-01-11T04:08:38.723Z,-7.61
2024-01-11T04:09:38.586Z,-7.71
2024-01-11T04:10:38.577Z,-7.50
2024-01-11T04:11:38.643Z,-7.38
2024-01-11T04:12:38.626Z,-7.33
2024-01-11T04:13:38.558Z,-6.84
2024-01-11T04:14:38.592Z,-6.94
2024-01-11T04:15:38.568Z,-6.72
2024-01-11T04:16:38.567Z,-6.78
2024-01-11T04:17:38.761Z,-7.05
2024-01-11T04:18:38.734Z,-7.05
2024-01-11T04:19:38.529Z,-7.10
2024-01-11T04:20:38.536Z,-6.60
2024-01-11T04:21:38.531Z,-6.66
2024-01-11T04:22:38.508Z,-6.76
2024-01-11T04:23:38.761Z,-6.34
2024-01-11T04:24:38.509Z,-5.97
2024-01-11T04:25:38.500Z,-6.11
2024-01-11T04:26:38.612Z,-6.11
2024-01-11T04:27:38.479Z,-5.92
2024-01-11T04:28:38.492Z,-5.81
2024-01-11T04:29:38.571Z,-5.68
2024-01-11T04:30:38.549Z,-5.40
2024-01-11T04:31:38.524Z,-5.56
2024-01-11T04:32:38.553Z,-5.86
2024-01-11T04:33:38.621Z,-6.17
2024-01-11T04:34:38.617Z,-6.53
2024-01-11T04:35:38.691Z,-6.56
2024-01-11T04:36:38.497Z,-6.53
2024-01-11T04:37:38.385Z,-6.32
2024-01-11T04:38:38.515Z,-6.15
2024-01-11T04:39:38.398Z,-5.72
2024-01-11T04:40:38.385Z,-5.54
2024-01-11T04:41:38.528Z,-5.56
2024-01-11T04:42:38.348Z,-5.53
2024-01-11T04:43:38.343Z,-5.51
2024-01-11T04:44:38.446Z,-5.42
2024-01-11T04:45:38.344Z,-5.58
2024-01-11T04:46:38.329Z,-5.51
2024-01-11T04:47:38.453Z,-5.64
2024-01-11T04:48:38.341Z,-5.85
2024-01-11T04:49:38.328Z,-6.11
2024-01-11T04:50:38.330Z,-6.31
2024-01-11T04:51:38.280Z,-6.26
2024-01-11T04:52:38.315Z,-6.11
2024-01-11T04:53:38.306Z,-6.11
2024-01-11T04:54:38.289Z,-6.07
2024-01-11T04:55:38.253Z,-5.81
2024-01-11T04:56:38.310Z,-5.67
2024-01-11T04:57:38.252Z,-5.90
2024-01-11T04:58:38.281Z,-6.11
2024-01-11T04:59:38.364Z,-6.08
2024-01-11T05:00:38.246Z,-6.08
2024-01-11T05:01:38.242Z,-6.03
2024-01-11T05:02:38.331Z,-6.07
2024-01-11T05:03:38.285Z,-5.79
2024-01-11T05:04:38.232Z,-5.60
2024-01-11T05:05:38.255Z,-5.79
2024-01-11T05:06:38.212Z,-6.03
2024-01-11T05:07:38.177Z,-5.96
2024-01-11T05:08:38.229Z,-6.13
2024-01-11T05:09:38.161Z,-6.08
2024-01-11T05:10:38.149Z,-6.26
2024-01-11T05:13:12.218Z,-5.49
2024-01-11T05:14:12.268Z,-5.74
2024-01-11T05:15:12.220Z,-5.60
2024-01-11T05:16:12.205Z,-5.57
2024-01-11T05:17:12.223Z,-5.74
2024-01-11T05:18:12.386Z,-5.56
2024-01-11T05:19:12.294Z,-5.63
2024-01-11T05:20:12.332Z,-5.74
2024-01-11T05:21:12.173Z,-6.17
2024-01-11T05:22:12.175Z,-6.47
2024-01-11T05:23:12.228Z,-6.81
2024-01-11T05:24:12.462Z,-6.44
2024-01-11T05:25:12.151Z,-6.14
2024-01-11T05:26:12.175Z,-5.84
2024-01-11T05:27:12.156Z,-5.74
2024-01-11T05:28:12.146Z,-5.56
2024-01-11T05:29:12.137Z,-5.39
2024-01-11T05:30:12.210Z,-5.67
2024-01-11T05:31:12.217Z,-5.96
2024-01-11T05:32:12.210Z,-6.02
2024-01-11T05:33:12.210Z,-5.92
2024-01-11T05:34:13.392Z,-6.08
2024-01-11T05:35:13.240Z,-6.34
2024-01-11T05:36:13.206Z,-6.52
2024-01-11T05:37:13.209Z,-6.63
2024-01-11T05:38:14.232Z,-6.41
2024-01-11T05:39:13.190Z,-6.14
2024-01-11T05:40:13.183Z,-5.71
2024-01-11T05:41:13.214Z,-5.61
2024-01-11T05:42:13.194Z,-5.60
2024-01-11T05:43:13.169Z,-5.47
2024-01-11T05:44:13.228Z,-5.54
2024-01-11T05:45:13.157Z,-5.49
2024-01-11T05:46:14.174Z,-5.72
2024-01-11T05:47:13.185Z,-5.56
2024-01-11T05:48:13.224Z,-5.22
2024-01-11T05:49:13.152Z,-5.54
2024-01-11T05:50:13.175Z,-5.74
2024-01-11T05:51:14.137Z,-5.89
2024-01-11T05:52:13.109Z,-5.90
2024-01-11T05:53:13.095Z,-5.42
2024-01-11T05:54:13.099Z,-5.08
2024-01-11T05:55:13.084Z,-5.02
2024-01-11T05:56:13.151Z,-4.91
2024-01-11T05:57:13.079Z,-5.18
2024-01-11T05:58:13.079Z,-5.85
2024-01-11T05:59:13.141Z,-6.13
2024-01-11T06:00:13.151Z,-6.17
2024-01-11T06:01:13.082Z,-6.13
2024-01-11T06:02:13.162Z,-6.15
2024-01-11T06:03:13.047Z,-6.08
2024-01-11T06:04:13.006Z,-5.72
2024-01-11T06:05:14.093Z,-5.38
2024-01-11T06:06:13.290Z,-5.43
2024-01-11T06:07:13.017Z,-5.47
2024-01-11T06:08:13.015Z,-5.86
2024-01-11T06:09:12.982Z,-5.61
2024-01-11T06:10:12.996Z,-5.45
2024-01-11T06:11:13.108Z,-5.67
2024-01-11T06:12:12.957Z,-5.92
2024-01-11T06:13:12.956Z,-6.20
2024-01-11T06:14:12.985Z,-6.56
2024-01-11T06:15:12.966Z,-6.47
2024-01-11T06:16:13.647Z,-6.11
2024-01-11T06:17:13.976Z,-6.13
2024-01-11T06:18:13.075Z,-6.07
2024-01-11T06:19:13.057Z,-6.20
2024-01-11T06:20:12.974Z,-6.15
2024-01-11T06:21:12.912Z,-6.08
2024-01-11T06:22:12.902Z,-5.97
2024-01-11T06:23:12.951Z,-5.85
2024-01-11T06:24:12.928Z,-5.93
2024-01-11T06:25:12.869Z,-5.95
2024-01-11T06:26:12.882Z,-6.21
2024-01-11T06:27:13.852Z,-6.60
2024-01-11T06:28:12.850Z,-6.50
2024-01-11T06:29:12.887Z,-6.66
2024-01-11T06:30:12.985Z,-6.26
2024-01-11T06:31:12.881Z,-6.13
2024-01-11T06:32:12.868Z,-5.92
2024-01-11T06:33:12.934Z,-5.49
2024-01-11T06:34:12.900Z,-5.19
2024-01-11T06:35:12.846Z,-5.46
2024-01-11T06:36:12.778Z,-5.92
2024-01-11T06:37:12.822Z,-6.08
2024-01-11T06:38:12.854Z,-6.52
2024-01-11T06:39:12.763Z,-6.79
2024-01-11T06:40:12.758Z,-6.66
2024-01-11T06:41:12.796Z,-6.14
2024-01-11T06:42:12.766Z,-6.03
2024-01-11T06:43:12.887Z,-6.14
2024-01-11T06:44:12.907Z,-6.32
2024-01-11T06:45:12.735Z,-6.18
2024-01-11T06:46:12.711Z,-5.74
2024-01-11T06:47:12.801Z,-5.67
2024-01-11T06:48:13.016Z,-5.86
2024-01-11T06:49:12.904Z,-5.74
2024-01-11T06:50:12.777Z,-5.63
2024-01-11T06:51:12.690Z,-5.38
2024-01-11T06:52:12.699Z,-5.19
2024-01-11T06:53:12.727Z,-5.43
2024-01-11T06:54:12.701Z,-5.61
2024-01-11T06:55:12.731Z,-5.76
2024-01-11T06:56:12.767Z,-6.00
2024-01-11T06:57:12.740Z,-6.21
2024-01-11T06:58:12.712Z,-6.34
2024-01-11T06:59:12.746Z,-6.54
2024-01-11T07:00:12.673Z,-6.41
2024-01-11T07:01:12.725Z,-5.93
2024-01-11T07:02:12.716Z,-5.79
2024-01-11T07:03:12.697Z,-5.67
2024-01-11T07:04:12.792Z,-5.85
2024-01-11T07:05:12.710Z,-6.20
2024-01-11T07:06:12.756Z,-6.28
2024-01-11T07:07:12.565Z,-6.15
2024-01-11T07:08:12.585Z,-6.03
2024-01-11T07:09:12.557Z,-5.78
2024-01-11T07:10:12.564Z,-5.84
2024-01-11T07:11:12.690Z,-6.03
2024-01-11T07:12:13.539Z,-5.76
2024-01-11T07:13:12.528Z,-5.79
2024-01-11T07:14:12.581Z,-5.54
2024-01-11T07:15:12.578Z,-5.21
2024-01-11T07:16:16.125Z,-4.81
2024-01-11T07:17:13.519Z,-4.75
2024-01-11T07:18:12.588Z,-4.87
2024-01-11T07:19:12.532Z,-5.02
2024-01-11T07:20:12.645Z,-5.38
2024-01-11T07:21:12.482Z,-5.66
2024-01-11T07:22:12.451Z,-5.75
2024-01-11T07:23:12.470Z,-5.57
2024-01-11T07:24:12.444Z,-5.17
2024-01-11T07:25:12.445Z,-5.25
2024-01-11T07:26:13.476Z,-5.43
2024-01-11T07:27:12.423Z,-5.39
2024-01-11T07:28:12.418Z,-5.35
2024-01-11T07:29:12.467Z,-5.78
2024-01-11T07:30:12.488Z,-6.11
2024-01-11T07:31:12.396Z,-6.31
2024-01-11T07:32:12.450Z,-6.39
2024-01-11T07:33:12.525Z,-6.10
2024-01-11T07:34:12.507Z,-5.76
2024-01-11T07:35:15.215Z,-5.84
2024-01-11T07:36:13.388Z,-5.66
2024-01-11T07:37:12.399Z,-5.36
2024-01-11T07:38:12.374Z,-5.19
2024-01-11T07:39:13.380Z,-5.13
2024-01-11T07:40:12.403Z,-5.03
2024-01-11T07:41:12.356Z,-4.92
2024-01-11T07:42:12.322Z,-5.14
2024-01-11T07:43:12.349Z,-5.47
2024-01-11T07:44:12.365Z,-6.00
2024-01-11T07:45:12.296Z,-6.23
2024-01-11T07:46:12.293Z,-6.56
2024-01-11T07:47:12.301Z,-6.32
2024-01-11T07:48:12.377Z,-6.21
2024-01-11T07:49:12.371Z,-6.24
2024-01-11T07:50:12.326Z,-6.07
2024-01-11T07:51:12.257Z,-5.66
2024-01-11T07:52:12.258Z,-5.31
2024-01-11T07:53:12.346Z,-5.18
2024-01-11T07:54:12.243Z,-5.13
2024-01-11T07:55:12.243Z,-5.05
2024-01-11T07:56:12.248Z,-4.89
2024-01-11T07:57:12.210Z,-4.85
2024-01-11T07:58:12.223Z,-4.34
2024-01-11T07:59:12.216Z,-4.12
2024-01-11T08:00:12.207Z,-4.21
2024-01-11T08:01:12.202Z,-4.43
2024-01-11T08:02:12.225Z,-4.57
2024-01-11T08:03:12.428Z,-4.66
2024-01-11T08:04:12.187Z,-4.53
2024-01-11T08:05:12.257Z,-4.43
2024-01-11T08:06:13.343Z,-4.38
2024-01-11T08:07:12.212Z,-3.83
2024-01-11T08:08:12.160Z,-3.61
2024-01-11T08:09:13.148Z,-3.25
2024-01-11T08:10:12.130Z,-3.02
2024-01-11T08:11:12.133Z,-3.07
2024-01-11T08:12:12.201Z,-3.12
2024-01-11T08:13:12.093Z,-3.19
2024-01-11T08:14:12.134Z,-3.25
2024-01-11T08:15:12.073Z,-3.15
2024-01-11T08:16:12.072Z,-2.92
2024-01-11T08:17:12.134Z,-2.70
2024-01-11T08:18:12.088Z,-2.59
2024-01-11T08:19:12.197Z,-2.41
2024-01-11T08:20:12.094Z,-2.04
2024-01-11T08:21:12.035Z,-1.72
2024-01-11T08:22:12.046Z,-1.72
2024-01-11T08:23:12.038Z,-1.58
2024-01-11T08:24:12.018Z,-1.43
2024-01-11T08:25:12.006Z,-1.27
2024-01-11T08:26:12.114Z,-1.19
2024-01-11T08:27:11.993Z,-1.37
2024-01-11T08:28:12.095Z,-1.27
2024-01-11T08:29:12.027Z,-1.48
2024-01-11T08:30:12.002Z,-1.76
2024-01-11T08:31:12.097Z,-1.71
2024-01-11T08:32:19.878Z,-1.72
2024-01-11T08:33:14.024Z,-1.90
2024-01-11T08:34:12.065Z,-2.00
2024-01-11T08:35:12.163Z,-1.90
2024-01-11T08:36:12.016Z,-1.80
2024-01-11T08:37:11.911Z,-1.72
2024-01-11T08:38:12.256Z,-1.83
2024-01-11T08:39:11.891Z,-1.90
2024-01-11T08:40:11.925Z,-2.02
2024-01-11T08:41:11.950Z,-2.10
2024-01-11T08:42:11.873Z,-2.13
2024-01-11T08:43:11.863Z,-2.32
2024-01-11T08:44:11.860Z,-2.41
2024-01-11T08:45:11.872Z,-2.77
2024-01-11T08:46:11.860Z,-2.77
2024-01-11T08:47:11.855Z,-2.89
2024-01-11T08:48:11.954Z,-2.70
2024-01-11T08:49:11.869Z,-2.62
2024-01-11T08:50:11.883Z,-2.53
2024-01-11T08:51:11.804Z,-2.18
2024-01-11T08:52:11.796Z,-2.22
2024-01-11T08:53:11.870Z,-2.55
2024-01-11T08:54:11.814Z,-2.84
2024-01-11T08:55:11.793Z,-2.45
2024-01-11T08:56:11.768Z,-2.02
2024-01-11T08:57:11.758Z,-1.95
2024-01-11T08:58:11.753Z,-2.00
2024-01-11T08:59:11.812Z,-2.16
2024-01-11T09:00:11.730Z,-2.44
2024-01-11T09:01:11.736Z,-2.47
2024-01-11T09:02:15.798Z,-2.28
2024-01-11T09:03:13.331Z,-2.16
2024-01-11T09:04:11.878Z,-2.04
2024-01-11T09:05:11.764Z,-2.23
2024-01-11T09:06:11.771Z,-2.07
2024-01-11T09:07:11.685Z,-2.08
2024-01-11T09:08:11.724Z,-2.02
2024-01-11T09:09:11.685Z,-1.94
2024-01-11T09:10:11.655Z,-1.58
2024-01-11T09:11:11.767Z,-1.37
2024-01-11T09:12:11.653Z,-1.27
2024-01-11T09:13:13.217Z,-1.20
2024-01-11T09:14:11.663Z,-1.33
2024-01-11T09:15:11.630Z,-1.27
2024-01-11T09:16:11.617Z,-1.20
2024-01-11T09:17:11.645Z,-1.14
2024-01-11T09:18:11.879Z,-1.15
2024-01-11T09:19:11.642Z,-1.37
2024-01-11T09:20:11.645Z,-1.83
2024-01-11T09:21:11.574Z,-1.83
2024-01-11T09:22:11.881Z,-1.69
2024-01-11T09:23:11.655Z,-1.35
2024-01-11T09:24:11.569Z,-1.15
2024-01-11T09:25:11.540Z,-1.09
2024-01-11T09:26:11.586Z,-0.89
2024-01-11T09:27:11.557Z,-0.75
2024-01-11T09:28:11.545Z,-0.78
2024-01-11T09:29:11.534Z,-0.77
2024-01-11T09:30:11.561Z,-1.12
2024-01-11T09:31:11.529Z,-1.25
2024-01-11T09:32:11.575Z,-1.54
2024-01-11T09:33:11.597Z,-1.33
2024-01-11T09:34:11.573Z,-1.32
2024-01-11T09:35:13.908Z,-1.20
2024-01-11T09:36:12.463Z,-1.23
2024-01-11T09:37:11.483Z,-0.94
2024-01-11T09:38:11.490Z,-1.35
2024-01-11T09:39:11.584Z,-1.61
2024-01-11T09:40:11.422Z,-2.05
2024-01-11T09:41:14.103Z,-2.37
2024-01-11T09:42:11.840Z,-2.59
2024-01-11T09:43:11.415Z,-2.80
2024-01-11T09:44:11.429Z,-2.98
2024-01-11T09:45:11.406Z,-3.10
2024-01-11T09:46:11.408Z,-3.23
2024-01-11T09:47:12.626Z,-3.25
2024-01-11T09:48:12.600Z,-3.13
2024-01-11T09:49:11.414Z,-3.33
2024-01-11T09:50:11.403Z,-3.54
2024-01-11T09:51:11.365Z,-3.46
2024-01-11T09:52:11.345Z,-3.46
2024-01-11T09:53:11.368Z,-3.56
2024-01-11T09:54:11.322Z,-3.74
2024-01-11T09:55:11.310Z,-3.44
2024-01-11T09:56:11.490Z,-3.19
2024-01-11T09:57:11.306Z,-3.25
2024-01-11T09:58:11.286Z,-2.91
2024-01-11T09:59:11.878Z,-2.84
2024-01-11T10:00:11.301Z,-2.58
2024-01-11T10:01:11.337Z,-2.44
2024-01-11T10:02:11.376Z,-2.56
2024-01-11T10:03:11.253Z,-2.26
2024-01-11T10:04:11.312Z,-2.58
2024-01-11T10:05:11.818Z,-2.62
2024-01-11T10:06:11.253Z,-2.59
2024-01-11T10:07:11.310Z,-2.55
2024-01-11T10:08:11.229Z,-2.60
2024-01-11T10:09:11.221Z,-2.53
2024-01-11T10:10:11.242Z,-2.63
2024-01-11T10:11:11.223Z,-2.86
2024-01-11T10:12:11.183Z,-2.84
2024-01-11T10:13:11.177Z,-2.89
2024-01-11T10:14:11.227Z,-3.02
2024-01-11T10:15:11.444Z,-2.89
2024-01-11T10:16:11.167Z,-2.84
2024-01-11T10:17:14.948Z,-2.83
2024-01-11T10:18:13.371Z,-2.95
2024-01-11T10:19:11.299Z,-2.81
2024-01-11T10:20:11.290Z,-2.88
2024-01-11T10:21:11.198Z,-2.84
2024-01-11T10:22:11.111Z,-2.89
2024-01-11T10:23:11.165Z,-2.92
2024-01-11T10:24:11.120Z,-2.94
2024-01-11T10:25:11.086Z,-2.81
2024-01-11T10:26:11.174Z,-2.74
2024-01-11T10:27:11.078Z,-2.74
2024-01-11T10:28:11.092Z,-2.76
2024-01-11T10:29:11.231Z,-2.60
2024-01-11T10:30:11.086Z,-2.50
2024-01-11T10:31:11.057Z,-2.63
2024-01-11T10:32:11.126Z,-2.86
2024-01-11T10:33:11.283Z,-2.95
2024-01-11T10:34:11.107Z,-3.17
2024-01-11T10:35:11.148Z,-3.19
2024-01-11T10:36:11.142Z,-3.25
2024-01-11T10:37:11.004Z,-3.49
2024-01-11T10:38:11.041Z,-3.55
2024-01-11T10:39:10.999Z,-3.51
2024-01-11T10:40:10.971Z,-3.58
2024-01-11T10:41:11.020Z,-3.38
2024-01-11T10:42:10.990Z,-3.31
2024-01-11T10:43:10.992Z,-3.15
2024-01-11T10:44:10.993Z,-3.16
2024-01-11T10:45:10.941Z,-3.07
2024-01-11T10:46:10.979Z,-3.09
2024-01-11T10:47:10.971Z,-2.88
2024-01-11T10:48:11.019Z,-2.81
2024-01-11T10:49:10.951Z,-2.69
2024-01-11T10:50:10.978Z,-2.77
2024-01-11T10:51:10.894Z,-2.66
2024-01-11T10:52:10.920Z,-2.48
2024-01-11T10:53:10.920Z,-2.42
2024-01-11T10:54:10.871Z,-2.28
2024-01-11T10:55:10.886Z,-2.25
2024-01-11T10:56:11.005Z,-2.13
2024-01-11T10:57:10.870Z,-2.32
2024-01-11T10:58:10.840Z,-2.42
2024-01-11T10:59:10.858Z,-2.40
2024-01-11T11:00:10.822Z,-2.42
2024-01-11T11:01:10.863Z,-2.44
2024-01-11T11:02:10.897Z,-2.34
2024-01-11T11:03:10.922Z,-2.62
2024-01-11T11:04:10.798Z,-2.56
2024-01-11T11:05:10.876Z,-2.63
2024-01-11T11:06:10.903Z,-2.48
2024-01-11T11:07:10.806Z,-2.52
2024-01-11T11:08:10.793Z,-2.55
2024-01-11T11:09:10.771Z,-2.55
2024-01-11T11:10:10.799Z,-2.47
2024-01-11T11:11:10.795Z,-2.37
2024-01-11T11:12:43.388Z,-2.22
2024-01-11T11:13:10.727Z,-2.21
2024-01-11T11:14:10.754Z,-2.13
2024-01-11T11:15:10.733Z,-2.16
2024-01-11T11:16:10.715Z,-2.21
2024-01-11T11:17:10.728Z,-2.18
2024-01-11T11:18:10.705Z,-2.15
2024-01-11T11:19:10.734Z,-2.23
2024-01-11T11:20:10.727Z,-2.26
2024-01-11T11:21:10.665Z,-2.21
2024-01-11T11:22:10.679Z,-2.23
2024-01-11T11:23:10.690Z,-2.26
2024-01-11T11:24:10.666Z,-2.28
2024-01-11T11:25:10.655Z,-2.18
2024-01-11T11:26:10.804Z,-2.15
2024-01-11T11:27:10.620Z,-2.15
2024-01-11T11:28:10.608Z,-2.22
2024-01-11T11:29:10.658Z,-2.12
2024-01-11T11:30:10.610Z,-2.07
2024-01-11T11:31:10.587Z,-2.18
2024-01-11T11:32:10.606Z,-2.15
2024-01-11T11:33:10.675Z,-2.02
2024-01-11T11:34:10.639Z,-2.00
2024-01-11T11:35:10.575Z,-1.89
2024-01-11T11:36:10.555Z,-1.89
2024-01-11T11:37:10.541Z,-1.86
2024-01-11T11:38:10.693Z,-1.89
2024-01-11T11:39:10.571Z,-1.86
2024-01-11T11:40:10.532Z,-1.76
2024-01-11T11:41:10.525Z,-1.71
2024-01-11T11:42:10.517Z,-1.65
2024-01-11T11:43:10.532Z,-1.66
2024-01-11T11:44:10.509Z,-1.61
2024-01-11T11:45:10.497Z,-1.62
2024-01-11T11:46:10.564Z,-1.62
2024-01-11T11:47:10.510Z,-1.54
2024-01-11T11:48:10.591Z,-1.43
2024-01-11T11:49:10.489Z,-1.44
2024-01-11T11:50:10.548Z,-1.38
2024-01-11T11:51:10.478Z,-1.32
2024-01-11T11:52:10.475Z,-1.15
2024-01-11T11:53:10.487Z,-0.91
2024-01-11T11:54:10.422Z,-0.68
2024-01-11T11:55:10.420Z,-0.54
2024-01-11T11:56:10.443Z,-0.43
2024-01-11T11:57:10.436Z,-0.34
2024-01-11T11:58:10.403Z,-0.29
2024-01-11T11:59:10.409Z,-0.39
2024-01-11T12:00:10.389Z,-0.47
2024-01-11T12:01:10.392Z,-0.67
2024-01-11T12:02:10.423Z,-0.67
2024-01-11T12:03:10.361Z,-0.65
2024-01-11T12:04:10.362Z,-0.78
2024-01-11T12:05:10.476Z,-0.82
2024-01-11T12:06:10.569Z,-0.78
2024-01-11T12:07:10.413Z,-0.75
2024-01-11T12:08:10.348Z,-0.74
2024-01-11T12:09:10.314Z,-0.59
2024-01-11T12:10:10.299Z,-0.71
2024-01-11T12:11:10.339Z,-0.67
2024-01-11T12:12:15.645Z,-0.65
2024-01-11T12:13:12.310Z,-0.70
2024-01-11T12:14:10.309Z,-0.70
2024-01-11T12:15:10.264Z,-0.64
2024-01-11T12:16:10.304Z,-0.62
2024-01-11T12:17:10.277Z,-0.67
2024-01-11T12:18:10.350Z,-0.56
2024-01-11T12:19:10.380Z,-0.57
2024-01-11T12:20:10.270Z,-0.50
2024-01-11T12:21:10.257Z,-0.29
2024-01-11T12:22:10.221Z,-0.38
2024-01-11T12:23:10.220Z,-0.26
2024-01-11T12:24:10.198Z,-0.11
2024-01-11T12:25:10.232Z,-0.15
2024-01-11T12:26:10.229Z,0.11
2024-01-11T12:27:10.179Z,0.21
2024-01-11T12:28:10.194Z,0.32
2024-01-11T12:29:10.247Z,0.40
2024-01-11T12:30:10.295Z,0.50
2024-01-11T12:31:10.148Z,0.43
2024-01-11T12:32:10.156Z,0.34
2024-01-11T12:33:10.238Z,0.34
2024-01-11T12:34:10.224Z,0.41
2024-01-11T12:35:10.215Z,0.49
2024-01-11T12:36:10.143Z,0.52
2024-01-11T12:37:10.122Z,0.46
2024-01-11T12:38:10.129Z,0.47
2024-01-11T12:39:10.115Z,0.66
2024-01-11T12:40:10.121Z,0.74
2024-01-11T12:41:10.121Z,0.77
2024-01-11T12:42:10.073Z,0.78
2024-01-11T12:43:10.063Z,0.87
2024-01-11T12:44:10.069Z,0.86
2024-01-11T12:45:10.072Z,0.86
2024-01-11T12:46:10.041Z,1.23
2024-01-11T12:47:10.098Z,1.30
2024-01-11T12:48:10.316Z,1.42
2024-01-11T12:49:10.162Z,1.52
2024-01-11T12:50:10.072Z,1.35
2024-01-11T12:51:17.114Z,1.42
2024-01-11T12:52:12.008Z,1.32
2024-01-11T12:53:10.036Z,1.28
2024-01-11T12:54:10.008Z,1.19
2024-01-11T12:55:09.976Z,1.20